Time;durP1;ratioP1;P1;durP2;ratioP2;P2;SDS_P1;SDS_P2;PMS_P1;PMS_P2;Temp;Humidity;BMP_temperature;BMP_pressure;BME280_temperature;BME280_humidity;BME280_pressure;Samples;Min_cycle;Max_cycle;Signal;HPM_P1;HPM_P2
2023/10/11 00:00:33;;;;;;;18.90;11.85;;;12.30;99.90;;;;;;5074707;28;20031;-66
2023/10/11 00:03:17;;;;;;;23.25;11.63;;;12.20;99.90;;;;;;5074098;28;20036;-66
2023/10/11 00:05:47;;;;;;;27.23;11.65;;;12.20;99.90;;;;;;5076128;28;20012;-66
2023/10/11 00:08:18;;;;;;;23.58;10.93;;;12.10;99.90;;;;;;5076388;28;20134;-66
2023/10/11 00:10:49;;;;;;;18.17;11.48;;;12.10;99.90;;;;;;5075933;28;20376;-67
2023/10/11 00:13:16;;;;;;;19.63;11.55;;;12.10;99.90;;;;;;5075218;28;20021;-67
2023/10/11 00:15:50;;;;;;;25.25;10.80;;;12.00;99.90;;;;;;5075907;28;20115;-67
2023/10/11 00:18:26;;;;;;;21.00;10.40;;;12.00;99.90;;;;;;5076081;28;20039;-67
2023/10/11 00:20:56;;;;;;;19.60;10.55;;;11.90;99.90;;;;;;5075841;28;20503;-66
2023/10/11 00:23:23;;;;;;;27.40;11.65;;;11.90;99.90;;;;;;5075748;28;20020;-67
2023/10/11 00:26:00;;;;;;;25.83;10.82;;;11.90;99.90;;;;;;5074303;28;20074;-67
2023/10/11 00:28:26;;;;;;;23.17;11.50;;;11.80;99.90;;;;;;5075657;28;20028;-67
2023/10/11 00:30:59;;;;;;;24.52;11.02;;;11.80;99.90;;;;;;5075485;28;20095;-66
2023/10/11 00:33:25;;;;;;;20.98;11.90;;;11.80;99.90;;;;;;5074109;28;20048;-67
2023/10/11 00:35:52;;;;;;;20.10;11.35;;;11.70;99.90;;;;;;5075490;28;20020;-66
2023/10/11 00:38:20;;;;;;;21.95;11.88;;;11.70;99.90;;;;;;5075102;28;20506;-67
2023/10/11 00:41:07;;;;;;;22.50;11.77;;;11.70;99.90;;;;;;5075400;28;20025;-67
2023/10/11 00:43:33;;;;;;;22.70;10.75;;;11.70;99.90;;;;;;5074559;28;20063;-67
2023/10/11 00:45:59;;;;;;;24.30;12.57;;;11.60;99.90;;;;;;5078629;28;20016;-67
2023/10/11 00:48:26;;;;;;;21.33;12.02;;;11.60;99.90;;;;;;5077418;28;20024;-66
2023/10/11 00:50:53;;;;;;;23.48;12.40;;;11.60;99.90;;;;;;5076726;28;20028;-66
2023/10/11 00:53:19;;;;;;;27.83;12.60;;;11.50;99.90;;;;;;5073851;28;20126;-66
2023/10/11 00:55:45;;;;;;;20.13;12.85;;;11.50;99.90;;;;;;5074974;28;20033;-67
2023/10/11 00:58:15;;;;;;;25.27;13.75;;;11.50;99.90;;;;;;5073682;28;20017;-66
2023/10/11 01:00:42;;;;;;;27.42;14.15;;;11.50;99.90;;;;;;5074919;28;20478;-66
2023/10/11 01:03:08;;;;;;;21.65;12.65;;;11.50;99.90;;;;;;5075071;28;20032;-66
2023/10/11 01:05:43;;;;;;;23.85;13.77;;;11.50;99.90;;;;;;5074576;28;20032;-66
2023/10/11 01:08:10;;;;;;;28.35;13.75;;;11.50;99.90;;;;;;5074933;28;20024;-66
2023/10/11 01:10:37;;;;;;;23.73;13.30;;;11.40;99.90;;;;;;5073088;28;20457;-66
2023/10/11 01:13:02;;;;;;;28.17;13.40;;;11.40;99.90;;;;;;5074688;28;20086;-66
2023/10/11 01:15:28;;;;;;;29.05;13.00;;;11.40;99.90;;;;;;5074298;28;20464;-66
2023/10/11 01:17:54;;;;;;;26.20;14.70;;;11.40;99.90;;;;;;5074567;28;20107;-66
2023/10/11 01:20:19;;;;;;;26.73;13.40;;;11.50;99.90;;;;;;5073165;28;20050;-66
2023/10/11 01:22:45;;;;;;;27.45;13.55;;;11.50;99.90;;;;;;5074226;28;20078;-67
2023/10/11 01:25:21;;;;;;;21.20;12.27;;;11.40;99.90;;;;;;5074526;28;20027;-66
2023/10/11 01:27:47;;;;;;;25.38;12.05;;;11.40;99.90;;;;;;5074655;28;20109;-67
2023/10/11 01:30:14;;;;;;;20.00;12.65;;;11.40;99.90;;;;;;5074450;28;20021;-67
2023/10/11 01:32:41;;;;;;;29.98;13.70;;;11.40;99.90;;;;;;5061830;28;20495;-66
2023/10/11 01:35:21;;;;;;;25.85;13.23;;;11.40;99.90;;;;;;5054372;28;20017;-67
2023/10/11 01:37:48;;;;;;;24.73;12.60;;;11.30;99.90;;;;;;5054596;28;20024;-66
2023/10/11 01:40:31;;;;;;;30.20;13.52;;;11.30;99.90;;;;;;5054470;28;20108;-66
2023/10/11 01:42:57;;;;;;;32.90;14.30;;;11.30;99.90;;;;;;5037006;28;20028;-68
2023/10/11 01:45:23;;;;;;;24.50;13.65;;;11.30;99.90;;;;;;5056078;28;20027;-67
2023/10/11 01:47:50;;;;;;;27.20;14.35;;;11.30;99.90;;;;;;5055478;28;20453;-67
2023/10/11 01:50:17;;;;;;;28.85;13.48;;;11.30;99.90;;;;;;5055529;28;20053;-67
2023/10/11 01:52:47;;;;;;;25.25;13.35;;;11.30;99.90;;;;;;5037623;28;20032;-67
2023/10/11 01:55:14;;;;;;;24.27;13.80;;;11.30;99.90;;;;;;5055244;28;20078;-66
2023/10/11 01:57:45;;;;;;;22.85;13.35;;;11.30;99.90;;;;;;5054618;28;20499;-66
2023/10/11 02:00:15;;;;;;;21.33;12.82;;;11.30;99.90;;;;;;5053678;28;20506;-67
2023/10/11 02:02:47;;;;;;;32.22;13.40;;;11.20;99.90;;;;;;5036005;28;20029;-67
2023/10/11 02:05:17;;;;;;;26.67;13.95;;;11.20;99.90;;;;;;5036357;28;20045;-66
2023/10/11 02:07:44;;;;;;;24.23;13.20;;;11.20;99.90;;;;;;5036160;28;20078;-66
2023/10/11 02:10:13;;;;;;;22.20;11.70;;;11.20;99.90;;;;;;5053956;28;20060;-66
2023/10/11 02:12:46;;;;;;;29.40;11.70;;;11.20;99.90;;;;;;5053778;28;20511;-66
2023/10/11 02:15:21;;;;;;;22.92;11.95;;;11.20;99.90;;;;;;5054067;28;20029;-66
2023/10/11 02:17:48;;;;;;;21.95;12.10;;;11.20;99.90;;;;;;5035929;28;20079;-66
2023/10/11 02:20:15;;;;;;;24.05;12.20;;;11.10;99.90;;;;;;5036114;28;20047;-66
2023/10/11 02:22:44;;;;;;;24.77;12.30;;;11.10;99.90;;;;;;5038801;28;20024;-66
2023/10/11 02:25:13;;;;;;;;;;;11.10;99.90;;;;;;5040381;28;20025;-66
2023/10/11 02:27:41;;;;;;;25.60;11.38;;;11.10;99.90;;;;;;5039985;28;19991;-67
2023/10/11 02:30:19;;;;;;;22.58;10.13;;;11.10;99.90;;;;;;5058007;28;20353;-66
2023/10/11 02:32:45;;;;;;;22.40;11.02;;;11.00;99.90;;;;;;5058188;28;20143;-66
2023/10/11 02:35:13;;;;;;;21.55;10.70;;;11.00;99.90;;;;;;5057673;28;20052;-66
2023/10/11 02:37:45;;;;;;;20.45;10.25;;;10.90;99.90;;;;;;5039793;28;20025;-67
2023/10/11 02:40:16;;;;;;;20.75;10.65;;;10.90;99.90;;;;;;5057527;28;20029;-66
2023/10/11 02:42:46;;;;;;;26.13;10.85;;;10.90;99.90;;;;;;5057487;28;20361;-66
2023/10/11 02:45:13;;;;;;;24.48;12.68;;;10.90;99.90;;;;;;5057769;28;20049;-67
2023/10/11 02:47:42;;;;;;;22.88;11.05;;;11.00;99.90;;;;;;5039560;28;20077;-66
2023/10/11 02:50:11;;;;;;;15.38;10.25;;;11.00;99.90;;;;;;5057053;28;20411;-66
2023/10/11 02:52:36;;;;;;;;;;;11.00;99.90;;;;;;5057988;28;20028;-66
2023/10/11 02:57:44;;;;;;;17.48;10.15;;;11.00;99.90;;;;;;5057560;28;20043;-67
2023/10/11 03:00:22;;;;;;;21.42;10.98;;;11.00;99.90;;;;;;5056899;28;20115;-74
2023/10/11 03:02:54;;;;;;;21.27;11.20;;;11.00;99.90;;;;;;5057237;28;20029;-66
2023/10/11 03:05:26;;;;;;;21.98;11.10;;;11.00;99.90;;;;;;5057357;28;20170;-66
2023/10/11 03:07:56;;;;;;;32.65;11.77;;;11.00;99.90;;;;;;5039173;28;20021;-66
2023/10/11 03:10:22;;;;;;;39.85;12.43;;;11.00;99.90;;;;;;5039141;28;20029;-66
2023/10/11 03:12:51;;;;;;;24.17;11.85;;;11.00;99.90;;;;;;5057412;28;20024;-66
2023/10/11 03:15:19;;;;;;;16.42;10.77;;;10.90;99.90;;;;;;5057108;28;20028;-66
2023/10/11 03:17:52;;;;;;;23.42;11.50;;;11.00;99.90;;;;;;5056750;28;20364;-66
2023/10/11 03:20:37;;;;;;;17.98;9.90;;;11.00;99.90;;;;;;5057096;28;20025;-66
2023/10/11 03:23:10;;;;;;;26.90;11.07;;;11.00;99.90;;;;;;5038797;28;20027;-66
2023/10/11 03:25:38;;;;;;;18.13;10.77;;;11.00;99.90;;;;;;5039023;28;20020;-66
2023/10/11 03:28:05;;;;;;;23.40;11.55;;;10.90;99.90;;;;;;5056767;28;20021;-66
2023/10/11 03:30:35;;;;;;;15.48;9.40;;;10.90;99.90;;;;;;5056470;28;20404;-66
2023/10/11 03:33:07;;;;;;;20.50;10.98;;;10.90;99.90;;;;;;5056204;28;20041;-66
2023/10/11 03:35:38;;;;;;;18.17;9.95;;;10.90;99.90;;;;;;5038830;28;20023;-66
2023/10/11 03:38:16;;;;;;;19.20;11.27;;;10.90;99.90;;;;;;5056809;28;20068;-66
2023/10/11 03:41:14;;;;;;;27.77;10.10;;;10.90;99.90;;;;;;5038696;28;20373;-67
2023/10/11 03:43:41;;;;;;;18.00;10.27;;;10.90;99.90;;;;;;5056665;28;20048;-66
2023/10/11 03:46:10;;;;;;;18.33;9.75;;;10.90;99.90;;;;;;5056089;28;20103;-66
2023/10/11 03:48:44;;;;;;;24.05;11.45;;;10.90;99.90;;;;;;5056042;28;20369;-67
2023/10/11 03:51:12;;;;;;;17.08;10.10;;;10.90;99.90;;;;;;5056388;28;20451;-66
2023/10/11 03:53:41;;;;;;;25.08;10.45;;;10.90;99.90;;;;;;5038807;28;20021;-66
2023/10/11 03:56:07;;;;;;;23.63;10.43;;;10.80;99.90;;;;;;5038725;28;20415;-66
2023/10/11 03:58:33;;;;;;;27.95;12.20;;;10.90;99.90;;;;;;5040407;28;20524;-67
2023/10/11 04:01:13;;;;;;;19.40;10.40;;;10.90;99.90;;;;;;5057887;28;20059;-69
2023/10/11 04:03:40;;;;;;;17.30;10.07;;;10.90;99.90;;;;;;5057319;28;20036;-66
2023/10/11 04:06:13;;;;;;;17.27;10.32;;;10.90;99.90;;;;;;5056768;28;20052;-66
2023/10/11 04:08:47;;;;;;;20.77;9.95;;;10.90;99.90;;;;;;5038956;28;20116;-66
2023/10/11 04:11:18;;;;;;;19.45;11.20;;;10.90;99.90;;;;;;5056086;28;20063;-66
2023/10/11 04:13:46;;;;;;;20.23;11.23;;;10.80;99.90;;;;;;5056890;28;20017;-66
2023/10/11 04:16:13;;;;;;;18.50;11.45;;;10.90;99.90;;;;;;5056145;28;20048;-66
2023/10/11 04:18:39;;;;;;;22.33;12.50;;;10.80;99.90;;;;;;5056054;28;20112;-66
2023/10/11 04:23:35;;;;;;;20.52;11.10;;;10.80;99.90;;;;;;5055715;28;20021;-66
2023/10/11 04:26:07;;;;;;;20.67;10.85;;;10.80;99.90;;;;;;5055733;28;20063;-66
2023/10/11 04:28:33;;;;;;;20.08;10.77;;;10.80;99.90;;;;;;5055728;28;20052;-67
2023/10/11 04:33:50;;;;;;;22.92;11.85;;;10.80;99.90;;;;;;5055575;28;20492;-66
2023/10/11 04:36:20;;;;;;;22.63;11.73;;;10.80;99.90;;;;;;5038120;28;20074;-66
2023/10/11 04:38:50;;;;;;;26.88;12.45;;;10.80;99.90;;;;;;5055750;28;20431;-65
2023/10/11 04:41:18;;;;;;;21.08;11.07;;;10.70;99.90;;;;;;5037469;28;20032;-66
2023/10/11 04:44:04;;;;;;;19.13;12.00;;;10.70;99.90;;;;;;5037184;28;20064;-66
2023/10/11 04:46:30;;;;;;;24.67;11.20;;;10.70;99.90;;;;;;5055125;28;20603;-66
2023/10/11 04:49:17;;;;;;;22.45;11.32;;;10.60;99.90;;;;;;5037473;28;20036;-66
2023/10/11 04:51:45;;;;;;;19.38;12.00;;;10.60;99.90;;;;;;5054888;28;20020;-66
2023/10/11 04:54:13;;;;;;;16.05;10.27;;;10.60;99.90;;;;;;5037148;28;20021;-66
2023/10/11 04:59:17;;;;;;;22.38;10.73;;;10.60;99.90;;;;;;5054967;28;20031;-66
2023/10/11 05:04:14;;;;;;;25.05;11.63;;;10.60;99.90;;;;;;5055005;28;20444;-66
2023/10/11 05:06:41;;;;;;;28.30;12.48;;;10.50;99.90;;;;;;5055193;28;20356;-66
2023/10/11 05:09:14;;;;;;;23.08;11.55;;;10.40;99.90;;;;;;5054818;28;20025;-66
2023/10/11 05:11:44;;;;;;;30.30;11.07;;;10.40;99.90;;;;;;5036759;28;20029;-66
2023/10/11 05:16:59;;;;;;;21.92;11.07;;;10.40;99.90;;;;;;5054487;28;20032;-66
2023/10/11 05:19:28;;;;;;;22.15;10.75;;;10.40;99.90;;;;;;5054580;28;20027;-66
2023/10/11 05:21:55;;;;;;;19.65;11.18;;;10.40;99.90;;;;;;5054443;28;20028;-66
2023/10/11 05:24:44;;;;;;;22.77;10.38;;;10.40;99.90;;;;;;5054430;28;20078;-66
2023/10/11 05:32:50;;;;;;;24.33;9.68;;;10.40;99.90;;;;;;5054356;28;20480;-66
2023/10/11 05:35:24;;;;;;;21.88;10.98;;;10.50;99.90;;;;;;5054691;28;20017;-66
2023/10/11 05:51:42;;;;;;;22.10;10.20;;;10.50;99.90;;;;;;5054104;28;20052;-66
2023/10/11 05:54:09;;;;;;;20.55;10.27;;;10.60;99.90;;;;;;5036079;28;20441;-66
2023/10/11 05:56:38;;;;;;;22.05;9.43;;;10.60;99.90;;;;;;5036495;28;20323;-66
2023/10/11 05:59:05;;;;;;;22.90;9.95;;;10.60;99.90;;;;;;5036798;28;20035;-66
2023/10/11 06:01:31;;;;;;;19.30;10.00;;;10.70;99.90;;;;;;5035939;28;20456;-66
2023/10/11 06:04:02;;;;;;;16.15;9.48;;;10.70;99.90;;;;;;5035651;28;20036;-66
2023/10/11 06:06:32;;;;;;;17.65;9.38;;;10.70;99.90;;;;;;5036450;28;20120;-67
2023/10/11 06:08:58;;;;;;;17.75;9.10;;;10.80;99.90;;;;;;5053721;28;20103;-67
2023/10/11 06:11:36;;;;;;;19.05;9.35;;;10.80;99.90;;;;;;5054356;28;20031;-67
2023/10/11 06:14:05;;;;;;;21.67;9.68;;;10.80;99.90;;;;;;5054059;28;20123;-67
2023/10/11 06:16:39;;;;;;;18.45;8.40;;;10.90;99.90;;;;;;5053609;28;20425;-67
2023/10/11 06:19:18;;;;;;;14.60;8.15;;;11.00;99.90;;;;;;5053875;28;20079;-67
2023/10/11 06:21:56;;;;;;;;;;;11.10;99.90;;;;;;5054135;28;20028;-68
2023/10/11 06:24:30;;;;;;;19.33;7.72;;;11.20;99.90;;;;;;5054046;28;19992;-67
2023/10/11 06:27:11;;;;;;;17.52;8.82;;;11.30;99.90;;;;;;5035577;28;20025;-67
2023/10/11 06:29:53;;;;;;;21.25;10.02;;;11.50;99.90;;;;;;5036361;28;20074;-71
2023/10/11 06:32:22;;;;;;;25.65;10.43;;;11.60;99.90;;;;;;5053986;28;20512;-67
2023/10/11 06:34:52;;;;;;;17.00;9.45;;;11.70;99.90;;;;;;5053660;28;20029;-67
2023/10/11 06:37:34;;;;;;;17.20;8.32;;;11.70;99.90;;;;;;5053681;28;20108;-67
2023/10/11 06:42:31;;;;;;;14.65;7.53;;;11.90;99.90;;;;;;5053489;28;20086;-67
2023/10/11 06:45:01;;;;;;;12.43;7.57;;;12.00;99.90;;;;;;5035628;28;20032;-67
2023/10/11 06:47:35;;;;;;;22.85;7.22;;;12.00;99.90;;;;;;5035658;28;20025;-67
2023/10/11 06:50:12;;;;;;;12.95;6.60;;;12.10;99.90;;;;;;5053653;28;20033;-67
2023/10/11 06:52:45;;;;;;;8.75;5.25;;;12.10;99.90;;;;;;5053412;28;20059;-67
2023/10/11 06:57:50;;;;;;;10.52;5.90;;;12.30;99.90;;;;;;5052948;28;20035;-66
2023/10/11 07:00:29;;;;;;;8.35;4.97;;;12.40;99.90;;;;;;5053463;28;20368;-67
2023/10/11 07:05:56;;;;;;;13.98;5.47;;;12.80;99.90;;;;;;5053360;28;19907;-67
2023/10/11 07:08:31;;;;;;;11.98;4.72;;;13.00;99.90;;;;;;5037386;28;20060;-67
2023/10/11 07:13:49;;;;;;;12.77;5.05;;;13.40;99.90;;;;;;5039999;28;20033;-67
2023/10/11 07:16:18;;;;;;;11.98;4.03;;;13.70;99.90;;;;;;5056914;28;20103;-67
2023/10/11 07:18:45;;;;;;;16.55;3.78;;;14.10;99.90;;;;;;5056771;28;20021;-67
2023/10/11 07:21:11;;;;;;;14.77;4.85;;;14.60;99.90;;;;;;5057196;28;20031;-68
2023/10/11 07:28:58;;;;;;;9.23;3.50;;;16.20;99.90;;;;;;5056792;28;20021;-67
2023/10/11 07:31:35;;;;;;;9.93;3.17;;;16.80;99.90;;;;;;5038589;28;20027;-68
2023/10/11 07:34:10;;;;;;;11.02;3.05;;;17.10;99.90;;;;;;5038799;28;20049;-67
2023/10/11 07:36:37;;;;;;;13.68;3.45;;;17.70;99.90;;;;;;5056805;28;20055;-68
2023/10/11 07:39:14;;;;;;;11.25;3.20;;;17.30;99.90;;;;;;5056599;28;20025;-68
2023/10/11 07:41:43;;;;;;;10.25;2.85;;;18.50;99.90;;;;;;5056459;28;20365;-68
2023/10/11 07:44:10;;;;;;;12.10;3.90;;;19.00;99.90;;;;;;5056666;28;20079;-68
2023/10/11 07:46:39;;;;;;;10.93;3.55;;;19.40;99.90;;;;;;5056949;28;20104;-68
2023/10/11 07:49:06;;;;;;;9.23;3.78;;;19.90;99.90;;;;;;5043352;28;20021;-66
2023/10/11 07:51:36;;;;;;;11.25;3.03;;;20.10;99.90;;;;;;5043546;28;20373;-66
2023/10/11 07:54:07;;;;;;;12.57;3.55;;;20.50;99.90;;;;;;5060375;28;20017;-66
2023/10/11 07:56:35;;;;;;;10.82;3.00;;;20.90;99.90;;;;;;5057643;28;20017;-66
2023/10/11 07:59:08;;;;;;;10.45;3.67;;;21.20;99.90;;;;;;5038221;28;20025;-66
2023/10/11 08:01:43;;;;;;;11.13;3.47;;;21.50;99.90;;;;;;5038300;28;20495;-66
2023/10/11 08:04:17;;;;;;;8.52;4.25;;;21.60;99.90;;;;;;5055729;28;20456;-66
2023/10/11 08:06:46;;;;;;;9.98;3.75;;;21.70;99.90;;;;;;5038381;28;20035;-66
2023/10/11 08:09:25;;;;;;;10.30;4.00;;;21.90;99.90;;;;;;5038041;28;20488;-66
2023/10/11 08:11:56;;;;;;;7.95;3.67;;;21.90;99.90;;;;;;5056083;28;20188;-66
2023/10/11 08:14:28;;;;;;;10.30;3.40;;;22.00;99.90;;;;;;5056629;28;20021;-66
2023/10/11 08:16:56;;;;;;;12.05;3.42;;;22.40;99.90;;;;;;5038835;28;20516;-66
2023/10/11 08:19:22;;;;;;;11.13;3.08;;;22.90;99.90;;;;;;5054607;28;20021;-66
2023/10/11 08:21:54;;;;;;;9.73;3.80;;;23.20;99.90;;;;;;5055356;28;20469;-66
2023/10/11 08:24:25;;;;;;;10.25;4.32;;;23.60;99.50;;;;;;5055630;28;20025;-66
2023/10/11 08:26:52;;;;;;;7.40;3.25;;;24.00;98.30;;;;;;5055603;28;20064;-66
2023/10/11 08:29:30;;;;;;;9.30;3.90;;;24.20;97.10;;;;;;5037968;28;20532;-66
2023/10/11 08:31:57;;;;;;;9.70;3.63;;;24.30;96.40;;;;;;5047116;28;20080;-67
2023/10/11 08:34:27;;;;;;;12.32;4.30;;;24.60;95.50;;;;;;5074078;28;20794;-67
2023/10/11 08:36:56;;;;;;;14.85;4.40;;;24.90;95.10;;;;;;5074051;28;20024;-67
2023/10/11 08:39:35;;;;;;;9.75;4.30;;;25.00;94.80;;;;;;5075122;28;20047;-67
2023/10/11 08:42:10;;;;;;;15.13;5.05;;;25.30;94.30;;;;;;5076308;28;20039;-67
2023/10/11 08:44:39;;;;;;;14.73;5.05;;;25.80;93.10;;;;;;5077622;28;20098;-67
2023/10/11 08:47:05;;;;;;;12.77;5.03;;;26.00;92.00;;;;;;5078335;28;20096;-67
2023/10/11 08:49:35;;;;;;;14.02;4.85;;;26.30;92.00;;;;;;5076539;28;20024;-67
2023/10/11 08:52:01;;;;;;;17.10;4.40;;;26.60;90.40;;;;;;5075322;28;20024;-68
2023/10/11 08:54:31;;;;;;;10.80;4.43;;;26.40;90.40;;;;;;5075752;28;20028;-67
2023/10/11 08:56:59;;;;;;;19.33;5.43;;;26.70;90.20;;;;;;5075730;28;20048;-67
2023/10/11 08:59:25;;;;;;;10.10;4.32;;;27.00;87.90;;;;;;5077067;28;20032;-68
2023/10/11 09:01:59;;;;;;;14.80;4.95;;;27.50;87.90;;;;;;5075554;28;20448;-68
2023/10/11 09:04:26;;;;;;;10.90;5.05;;;27.80;84.20;;;;;;5075284;28;20028;-67
2023/10/11 09:06:57;;;;;;;14.80;5.85;;;27.90;83.10;;;;;;5075913;28;20016;-67
2023/10/11 09:09:39;;;;;;;14.48;5.25;;;28.10;82.50;;;;;;5076283;28;20055;-68
2023/10/11 09:15:05;;;;;;;12.90;6.28;;;27.50;80.90;;;;;;5052325;28;20449;-68
2023/10/11 09:17:40;;;;;;;11.60;5.78;;;28.00;80.30;;;;;;5075695;28;20436;-67
2023/10/11 09:20:23;;;;;;;12.27;4.88;;;28.40;79.00;;;;;;5073249;28;20032;-67
2023/10/11 09:22:55;;;;;;;15.65;5.25;;;28.20;77.50;;;;;;5074757;28;20021;-67
2023/10/11 09:25:21;;;;;;;13.10;5.03;;;28.20;78.40;;;;;;5074756;28;20031;-68
2023/10/11 09:27:51;;;;;;;12.32;4.85;;;28.60;77.80;;;;;;5074081;28;20369;-68
2023/10/11 09:30:22;;;;;;;9.88;4.90;;;28.80;76.90;;;;;;5072998;28;20024;-68
2023/10/11 09:32:53;;;;;;;12.10;4.82;;;29.10;74.60;;;;;;5061311;28;20158;-68
2023/10/11 09:35:29;;;;;;;14.85;5.22;;;29.50;73.80;;;;;;5037076;28;20024;-70
2023/10/11 09:37:57;;;;;;;13.98;5.53;;;29.30;73.00;;;;;;5037048;28;20116;-70
2023/10/11 09:40:33;;;;;;;10.02;4.38;;;29.20;72.80;;;;;;5036841;28;20052;-71
2023/10/11 09:43:00;;;;;;;12.15;5.03;;;29.30;72.40;;;;;;5037283;28;20036;-69
2023/10/11 09:45:53;;;;;;;7.55;4.05;;;28.90;73.70;;;;;;5036909;28;20112;-69
2023/10/11 09:48:22;;;;;;;8.75;4.60;;;29.00;72.80;;;;;;5036742;28;20032;-69
2023/10/11 09:50:48;;;;;;;9.63;4.45;;;29.00;71.00;;;;;;5054947;28;20021;-68
2023/10/11 09:53:15;;;;;;;17.08;5.63;;;28.60;72.10;;;;;;5054434;28;20099;-70
2023/10/11 09:55:58;;;;;;;7.43;3.92;;;29.30;71.50;;;;;;5054309;28;20017;-69
2023/10/11 09:58:41;;;;;;;12.73;5.10;;;29.80;69.80;;;;;;5054472;28;20572;-69
2023/10/11 10:01:38;;;;;;;15.15;5.88;;;30.30;68.20;;;;;;5054383;28;20029;-69
2023/10/11 10:04:07;;;;;;;15.43;5.30;;;30.40;67.70;;;;;;5053465;28;20358;-69
2023/10/11 10:06:33;;;;;;;11.68;4.45;;;30.40;67.20;;;;;;5054383;28;20111;-69
2023/10/11 10:09:09;;;;;;;13.18;5.38;;;30.20;66.80;;;;;;5054865;28;20140;-69
2023/10/11 10:12:09;;;;;;;9.40;4.65;;;30.40;65.90;;;;;;5037024;28;20029;-69
2023/10/11 10:14:39;;;;;;;13.07;4.95;;;30.70;66.00;;;;;;5056868;28;20021;-72
2023/10/11 10:17:12;;;;;;;11.50;4.63;;;31.00;65.50;;;;;;5060047;28;20021;-69
2023/10/11 10:19:39;;;;;;;10.48;4.88;;;30.30;66.10;;;;;;5043169;28;20377;-70
2023/10/11 10:22:17;;;;;;;10.35;4.28;;;30.30;65.60;;;;;;5060757;28;20507;-69
2023/10/11 10:24:47;;;;;;;11.32;3.90;;;30.20;66.70;;;;;;5042248;28;20544;-70
2023/10/11 10:27:33;;;;;;;11.32;4.38;;;30.30;65.90;;;;;;5041147;28;20021;-70
2023/10/11 10:30:07;;;;;;;7.70;4.07;;;30.50;65.00;;;;;;5040640;28;20032;-69
2023/10/11 10:32:34;;;;;;;7.25;4.40;;;30.80;64.70;;;;;;5058400;28;20415;-70
2023/10/11 10:35:18;;;;;;;7.97;3.80;;;31.10;63.80;;;;;;5040647;28;20480;-70
2023/10/11 10:37:55;;;;;;;5.85;3.72;;;31.20;63.20;;;;;;5043331;28;20025;-70
2023/10/11 10:40:25;;;;;;;9.13;4.32;;;31.10;62.50;;;;;;5060376;28;20029;-70
2023/10/11 10:43:06;;;;;;;9.85;3.53;;;30.70;63.40;;;;;;5060735;28;20044;-69
2023/10/11 10:45:33;;;;;;;9.75;4.45;;;31.10;63.00;;;;;;5046252;28;20025;-69
2023/10/11 10:48:20;;;;;;;10.27;3.67;;;31.80;61.80;;;;;;5045501;28;20029;-69
2023/10/11 10:50:46;;;;;;;9.98;4.07;;;32.50;60.80;;;;;;5046800;28;20333;-69
2023/10/11 10:53:14;;;;;;;8.43;3.80;;;32.90;59.40;;;;;;5063345;28;20057;-70
2023/10/11 10:55:42;;;;;;;10.10;3.47;;;33.20;58.90;;;;;;5063881;28;20013;-69
2023/10/11 10:58:12;;;;;;;8.97;3.53;;;33.40;56.90;;;;;;5062766;28;20028;-69
2023/10/11 11:00:40;;;;;;;7.68;3.58;;;33.30;57.30;;;;;;5044922;28;20028;-70
2023/10/11 11:03:19;;;;;;;8.90;3.83;;;33.20;57.30;;;;;;5061277;28;20043;-70
2023/10/11 11:05:58;;;;;;;8.75;3.30;;;33.20;56.50;;;;;;5061126;28;20028;-70
2023/10/11 11:08:31;;;;;;;8.60;3.90;;;33.50;56.50;;;;;;5061594;28;20035;-70
2023/10/11 11:11:25;;;;;;;11.20;3.45;;;33.70;56.00;;;;;;5042840;28;20349;-70
2023/10/11 11:13:52;;;;;;;6.85;3.40;;;33.60;55.80;;;;;;5059977;28;20017;-70
2023/10/11 11:16:19;;;;;;;7.50;3.67;;;33.60;54.70;;;;;;5059508;28;20025;-70
2023/10/11 11:18:45;;;;;;;12.67;3.00;;;33.70;55.00;;;;;;5059676;28;20035;-70
2023/10/11 11:21:20;;;;;;;11.13;3.28;;;33.50;55.30;;;;;;5059809;28;20108;-70
2023/10/11 11:23:49;;;;;;;7.88;3.30;;;33.70;54.80;;;;;;5041601;28;20048;-69
2023/10/11 11:26:18;;;;;;;7.68;3.47;;;33.60;54.30;;;;;;5058785;28;20021;-70
2023/10/11 11:28:45;;;;;;;8.90;3.38;;;33.70;54.50;;;;;;5040185;28;20515;-70
2023/10/11 11:31:30;;;;;;;7.60;4.00;;;33.40;53.50;;;;;;5057477;28;20108;-69
2023/10/11 11:34:12;;;;;;;9.18;3.42;;;33.10;53.70;;;;;;5040600;28;20047;-69
2023/10/11 11:36:41;;;;;;;11.63;4.22;;;32.90;54.10;;;;;;5057396;28;20029;-70
2023/10/11 11:41:52;;;;;;;9.25;4.93;;;32.90;53.80;;;;;;5057003;28;20087;-70
2023/10/11 11:44:27;;;;;;;12.00;5.25;;;33.10;53.60;;;;;;5044528;28;20025;-70
2023/10/11 11:46:55;;;;;;;11.25;4.50;;;33.30;53.80;;;;;;5051371;28;20029;-70
2023/10/11 11:49:22;;;;;;;6.95;3.80;;;33.30;53.30;;;;;;5067268;28;20029;-70
2023/10/11 11:51:52;;;;;;;8.30;3.80;;;33.30;53.70;;;;;;5061870;28;20024;-58
2023/10/11 11:54:19;;;;;;;8.82;4.10;;;33.30;54.20;;;;;;5057173;28;20052;-58
2023/10/11 11:56:46;;;;;;;11.75;4.03;;;32.80;54.20;;;;;;5057476;28;20099;-58
2023/10/11 11:59:19;;;;;;;8.57;3.92;;;32.30;54.60;;;;;;5057445;28;20071;-58
2023/10/11 12:02:01;;;;;;;8.93;3.53;;;31.80;55.00;;;;;;5058483;28;20115;-58
2023/10/11 12:04:32;;;;;;;11.63;4.28;;;31.40;56.10;;;;;;5058359;28;20053;-58
2023/10/11 12:07:07;;;;;;;12.13;4.05;;;31.30;56.20;;;;;;5058985;28;20059;-58
2023/10/11 12:09:34;;;;;;;9.13;4.00;;;31.10;56.80;;;;;;5058333;28;20103;-57
2023/10/11 12:12:05;;;;;;;10.32;4.22;;;30.70;57.30;;;;;;5056473;28;20029;-57
2023/10/11 12:14:37;;;;;;;10.30;3.97;;;30.30;57.90;;;;;;5057708;28;20035;-68
2023/10/11 12:17:09;;;;;;;8.27;4.05;;;30.70;57.70;;;;;;5057200;28;20368;-69
2023/10/11 12:19:41;;;;;;;8.85;3.70;;;30.60;56.80;;;;;;5056746;28;20021;-68
2023/10/11 12:22:08;;;;;;;6.13;3.08;;;29.40;58.10;;;;;;5038232;28;20037;-68
2023/10/11 12:24:35;;;;;;;9.82;4.00;;;29.00;59.50;;;;;;5038254;28;20056;-68
2023/10/11 12:27:00;;;;;;;9.05;3.50;;;29.90;58.10;;;;;;5038186;28;20023;-68
2023/10/11 12:29:27;;;;;;;6.38;3.58;;;30.80;56.90;;;;;;5056093;28;20103;-68
2023/10/11 12:31:55;;;;;;;13.50;3.55;;;31.80;56.00;;;;;;5055553;28;20044;-68
2023/10/11 12:34:24;;;;;;;8.63;3.67;;;32.00;54.50;;;;;;5038211;28;20021;-69
2023/10/11 12:36:55;;;;;;;7.03;3.20;;;31.90;54.80;;;;;;5056401;28;20021;-68
2023/10/11 12:39:24;;;;;;;10.88;3.28;;;31.20;55.30;;;;;;5038065;28;20059;-68
2023/10/11 12:41:50;;;;;;;;;;;30.90;56.10;;;;;;5055934;28;20060;-68
2023/10/11 12:44:17;;;;;;;7.07;3.40;;;31.10;55.30;;;;;;5055673;28;19900;-68
2023/10/11 12:46:42;;;;;;;9.00;2.85;;;31.40;55.90;;;;;;5037586;28;20021;-68
2023/10/11 12:49:14;;;;;;;7.75;3.53;;;31.30;54.80;;;;;;5055418;28;20353;-68
2023/10/11 12:51:47;;;;;;;8.52;3.22;;;31.30;55.10;;;;;;5037713;28;20089;-68
2023/10/11 12:54:14;;;;;;;8.93;3.17;;;31.70;54.90;;;;;;5055706;28;20072;-68
2023/10/11 12:56:42;;;;;;;9.70;3.45;;;30.80;55.20;;;;;;5055451;28;20025;-69
2023/10/11 12:59:12;;;;;;;;;;;30.10;57.00;;;;;;5055564;28;20049;-69
2023/10/11 13:01:40;;;;;;;6.45;2.80;;;29.10;58.00;;;;;;5037430;28;19908;-68
2023/10/11 13:04:10;;;;;;;10.98;3.40;;;28.20;59.60;;;;;;5055297;28;20096;-68
2023/10/11 13:06:40;;;;;;;7.25;2.75;;;27.60;61.90;;;;;;5036392;28;20160;-68
2023/10/11 13:09:14;;;;;;;15.63;2.97;;;27.10;62.80;;;;;;5055050;28;20025;-68
2023/10/11 13:11:46;;;;;;;10.35;3.42;;;26.60;64.60;;;;;;5054812;28;20025;-68
2023/10/11 13:14:18;;;;;;;6.45;3.33;;;26.20;66.70;;;;;;5055577;28;20021;-67
2023/10/11 13:16:55;;;;;;;16.65;3.83;;;26.00;68.30;;;;;;5054681;28;20049;-67
2023/10/11 13:19:24;;;;;;;12.00;3.47;;;25.60;67.80;;;;;;5036945;28;20025;-68
2023/10/11 13:21:55;;;;;;;18.77;3.60;;;25.30;73.80;;;;;;5054673;28;20118;-67
2023/10/11 13:24:25;;;;;;;11.57;3.25;;;24.80;76.90;;;;;;5054827;28;20029;-66
2023/10/11 13:26:54;;;;;;;9.27;3.75;;;24.50;75.70;;;;;;5054950;28;20349;-66
2023/10/11 13:29:21;;;;;;;12.77;3.00;;;24.40;80.10;;;;;;5054291;28;20021;-66
2023/10/11 13:31:56;;;;;;;7.20;3.20;;;24.30;80.90;;;;;;5054386;28;20036;-66
2023/10/11 13:34:28;;;;;;;15.50;4.20;;;24.10;82.70;;;;;;5036428;28;20346;-66
2023/10/11 13:36:57;;;;;;;8.45;3.22;;;23.90;83.40;;;;;;5054107;28;20028;-66
2023/10/11 13:39:26;;;;;;;14.50;3.17;;;23.80;86.50;;;;;;5054287;28;20044;-66
2023/10/11 13:41:52;;;;;;;12.50;4.18;;;23.60;87.50;;;;;;5054168;28;20040;-67
2023/10/11 13:44:19;;;;;;;9.52;3.28;;;23.40;90.10;;;;;;5054212;28;20453;-66
2023/10/11 13:46:51;;;;;;;8.57;3.20;;;23.20;90.80;;;;;;5036301;28;20435;-66
2023/10/11 13:49:26;;;;;;;7.68;3.00;;;23.20;92.20;;;;;;5036602;28;20377;-66
2023/10/11 13:51:58;;;;;;;11.32;2.97;;;23.10;92.80;;;;;;5054010;28;20087;-68